Woody Point, Canada
Current Conditions -  °F | °C
As of 8:00 AM on Thursday 18 Dec 2014 (Local Time) from CYDF Reporting Station
Overcast Overcast  
Wind Chill: 21°   Ceiling: 2200
Heat Index: 30°   Visibility: 15mi
Dew Point: 27°   Wind: 10mph
Humidity: 86%   Direction: 60°ENE
Pressure: 29.94"   Gusts: NA
Location:  49.5°N, 57.93°W
Report Text: CYDF 181100Z 06009KT 15SM OVC022 M01/M03 A2994 RMK SC8 SLP140
Loading
Personal Weather Stations






























Interactive Weather Map New forecast layout! Learn more

10-Day Weather Forecast

Advertisements
Track Severe Weather on mobile